Terminal Aerodrome Forecast
Issued by NWS Sterling, VA

Current Version | Previous Version | Graphics & Text | Print | Product List | Glossary On
Versions: 1 2 3 4 5 6 7 8 9 10 11 12 13 14 15 16 17 18 19 20 21 22 23
000
FTUS41 KLWX 010500
TAFDCA
TAF
KDCA 010538Z 0106/0206 02005KT P6SM -RA BKN015 OVC120
      TEMPO 0107/0110 VRB04KT 5SM BR SCT009 BKN035
     FM011000 07004KT P6SM SCT003 BKN030
     FM011200 06004KT P6SM SCT008 BKN010
     FM011300 05004KT P6SM SCT008 BKN015
     FM011500 05005KT P6SM BKN040
     FM011900 05005KT P6SM SCT040 SCT100=

USA.gov is the U.S. government's official web portal to all federal, state and local government web resources and services.